Hlavní strana
METAR-TAF:

METAR-TAF

Letiště :

Ljungbyhed, Švédsko

zeměpisná šířka: 56-04N, zeměpisná délka: 013-12E, výška: 43 m

Aktuální stav počasí

Zpráva byla vytvořena před 39 minutami, v 15:50 UTC
Severozápadní vítr 6 kt
Teplota 5°C
Vlhkost vzduchu 93%
Tlak 1033 hPa
Viditelnost 10 km a více

METAR: ESTL 281550Z AUTO 31006KT 9999 NCD 05/04 Q1033

Čas: 17:29 (16:29 UTC)


TAF: chybějící

Stav a předpovědi počasí z více než 4 000 letišť (zprávy METAR a TAF).

Červené a žluté tečky na mapě představují dostupné meteorologické stanice.

Když kurzor umístíte na tečku, zobrazí se název stanice.

Pak kliknutím zobrazíte stav a předpověď počasí.

Chcete-li změnit mapu, kliknutím na zelené tlačítko se znaménkem +mapu přiblížíte, kliknutím na zelené tlačítko se znaménkem – mapu oddálíte a kliknutím na zelené šipky přejdete na sousední mapy.


METAR-TAF: